Time;durP1;ratioP1;P1;durP2;ratioP2;P2;SDS_P1;SDS_P2;PMS_P1;PMS_P2;Temp;Humidity;BMP_temperature;BMP_pressure;BME280_temperature;BME280_humidity;BME280_pressure;Samples;Min_cycle;Max_cycle;Signal;HPM_P1;HPM_P2
2024/04/05 00:00:19;;;;;;;35.70;6.78;;;12.50;99.90;;;;;;4994929;28;20030;-86
2024/04/05 00:02:45;;;;;;;33.05;6.70;;;12.50;99.90;;;;;;4994323;28;20081;-86
2024/04/05 00:05:12;;;;;;;37.95;6.25;;;12.50;99.90;;;;;;4995708;28;20034;-90
2024/04/05 00:07:38;;;;;;;31.65;5.65;;;12.50;99.90;;;;;;4995236;28;20211;-88
2024/04/05 00:10:08;;;;;;;30.52;6.63;;;12.50;99.90;;;;;;4993481;28;20063;-88
2024/04/05 00:12:34;;;;;;;33.67;6.22;;;12.50;99.90;;;;;;4990722;28;20026;-87
2024/04/05 00:15:00;;;;;;;28.98;6.18;;;12.50;99.90;;;;;;4989031;28;20500;-88
2024/04/05 00:17:26;;;;;;;34.38;5.75;;;12.50;99.90;;;;;;4993607;28;20027;-88
2024/04/05 00:19:54;;;;;;;40.00;7.00;;;12.50;99.90;;;;;;4993531;28;20046;-88
2024/04/05 00:22:22;;;;;;;25.15;5.68;;;12.40;99.90;;;;;;4993195;28;20513;-88
2024/04/05 00:24:48;;;;;;;33.47;6.20;;;12.40;99.90;;;;;;4993161;28;20034;-88
2024/04/05 00:27:13;;;;;;;39.72;6.10;;;12.40;99.90;;;;;;4993660;28;20100;-87
2024/04/05 00:29:39;;;;;;;32.30;5.80;;;12.40;99.90;;;;;;4993166;28;20026;-88
2024/04/05 00:32:04;;;;;;;21.42;4.63;;;12.30;99.90;;;;;;4994115;28;20105;-89
2024/04/05 00:34:30;;;;;;;27.67;4.93;;;12.40;99.90;;;;;;4985159;28;20037;-88
2024/04/05 00:36:56;;;;;;;35.40;6.47;;;12.30;99.90;;;;;;4973201;28;20467;-88
2024/04/05 00:39:21;;;;;;;22.02;5.68;;;12.30;99.90;;;;;;4983301;28;20039;-88
2024/04/05 00:41:47;;;;;;;37.60;6.75;;;12.30;99.90;;;;;;4977453;28;20050;-88
2024/04/05 00:44:13;;;;;;;28.15;5.93;;;12.30;99.90;;;;;;4973785;28;20520;-88
2024/04/05 00:46:38;;;;;;;36.15;5.90;;;12.30;99.90;;;;;;4976734;28;20117;-87
2024/04/05 00:49:04;;;;;;;30.90;6.70;;;12.30;99.90;;;;;;4992568;28;20029;-87
2024/04/05 00:51:30;;;;;;;36.40;6.93;;;12.30;99.90;;;;;;4991925;28;20034;-89
2024/04/05 00:53:57;;;;;;;31.48;7.10;;;12.30;99.90;;;;;;4993934;28;20030;-86
2024/04/05 00:56:23;;;;;;;27.25;5.75;;;12.30;99.90;;;;;;4985740;28;20030;-90
2024/04/05 00:58:52;;;;;;;29.98;6.40;;;12.30;99.90;;;;;;4992956;28;20038;-90
2024/04/05 01:01:18;;;;;;;32.35;6.45;;;12.30;99.90;;;;;;4993259;28;20038;-87
2024/04/05 01:03:44;;;;;;;34.38;5.50;;;12.30;99.90;;;;;;4994372;28;20046;-87
2024/04/05 01:06:09;;;;;;;27.40;5.93;;;12.70;99.90;;;;;;4992606;28;20700;-89
2024/04/05 01:08:35;;;;;;;32.40;6.15;;;12.40;99.90;;;;;;4993148;28;20022;-86
2024/04/05 01:11:01;;;;;;;28.92;5.35;;;12.40;99.90;;;;;;4993450;28;20030;-86
2024/04/05 01:13:26;;;;;;;31.15;6.47;;;12.40;99.90;;;;;;4992504;28;20026;-86
2024/04/05 01:15:52;;;;;;;33.33;7.25;;;12.40;99.90;;;;;;4993121;28;20486;-88
2024/04/05 01:18:17;;;;;;;34.17;7.15;;;12.40;99.90;;;;;;4993096;28;20514;-86
2024/04/05 01:20:45;;;;;;;37.17;6.72;;;12.60;99.90;;;;;;4993378;28;20042;-89
2024/04/05 01:23:16;;;;;;;29.92;6.60;;;12.50;99.90;;;;;;4993774;28;20062;-87
2024/04/05 01:25:42;;;;;;;35.85;6.63;;;12.50;99.90;;;;;;4990260;28;20513;-87
2024/04/05 01:28:13;;;;;;;31.15;6.22;;;12.50;99.90;;;;;;4973037;28;20062;-89
2024/04/05 01:30:39;;;;;;;35.50;6.45;;;12.50;99.90;;;;;;4979191;28;20038;-87
2024/04/05 01:33:05;;;;;;;31.73;6.63;;;12.50;99.90;;;;;;5005663;28;20010;-87
2024/04/05 01:35:31;;;;;;;27.25;5.70;;;12.50;99.90;;;;;;4993828;28;20085;-88
2024/04/05 01:37:57;;;;;;;27.45;5.35;;;12.50;99.90;;;;;;4992029;28;20442;-89
2024/04/05 01:40:24;;;;;;;32.72;6.28;;;12.50;99.90;;;;;;4986625;28;20480;-88
2024/04/05 01:42:50;;;;;;;26.95;5.88;;;12.50;99.90;;;;;;4992176;28;20038;-86
2024/04/05 01:45:15;;;;;;;34.65;6.55;;;12.50;99.90;;;;;;4981631;28;20022;-88
2024/04/05 01:47:43;;;;;;;33.10;6.32;;;12.50;99.90;;;;;;4979617;28;20082;-88
2024/04/05 01:50:08;;;;;;;26.48;5.78;;;12.60;99.90;;;;;;5000473;28;20030;-88
2024/04/05 01:52:34;;;;;;;25.25;5.55;;;12.50;99.90;;;;;;4996538;28;20455;-87
2024/04/05 01:55:00;;;;;;;40.90;7.22;;;12.50;99.90;;;;;;4989789;28;20030;-88
2024/04/05 01:57:26;;;;;;;32.25;6.05;;;12.50;99.90;;;;;;4990503;28;20040;-87
2024/04/05 01:59:54;;;;;;;28.33;6.13;;;12.50;99.90;;;;;;5005750;28;20077;-87
2024/04/05 02:02:20;;;;;;;35.55;6.68;;;12.50;99.90;;;;;;4994936;28;20370;-85
2024/04/05 02:04:46;;;;;;;29.10;6.25;;;12.50;99.90;;;;;;4990948;28;20022;-87
2024/04/05 02:07:11;;;;;;;30.25;6.15;;;12.50;99.90;;;;;;4991679;28;20037;-86
2024/04/05 02:09:37;;;;;;;31.98;6.78;;;12.40;99.90;;;;;;4990111;28;20065;-87
2024/04/05 02:12:03;;;;;;;29.13;6.25;;;12.50;99.90;;;;;;4991604;28;20026;-88
2024/04/05 02:14:29;;;;;;;35.72;5.63;;;12.40;99.90;;;;;;4991250;28;20377;-89
2024/04/05 02:16:56;;;;;;;25.58;6.40;;;12.40;99.90;;;;;;4990757;28;20768;-86
2024/04/05 02:19:23;;;;;;;32.63;6.55;;;12.40;99.90;;;;;;4992248;28;20485;-87
2024/04/05 02:21:48;;;;;;;27.75;5.65;;;12.40;99.90;;;;;;4992083;28;20034;-87
2024/04/05 02:24:14;;;;;;;25.98;5.60;;;12.40;99.90;;;;;;4991374;28;20037;-88
2024/04/05 02:26:40;;;;;;;28.25;6.30;;;12.70;99.90;;;;;;4992309;28;20053;-88
2024/04/05 02:29:06;;;;;;;26.15;5.90;;;12.40;99.90;;;;;;4992817;28;20493;-88
2024/04/05 02:31:31;;;;;;;30.75;5.45;;;12.40;99.90;;;;;;4992780;28;20032;-87
2024/04/05 02:33:57;;;;;;;27.20;5.55;;;12.40;99.90;;;;;;4981686;28;20367;-87
2024/04/05 02:36:22;;;;;;;28.00;6.18;;;12.40;99.90;;;;;;4970814;28;20527;-88
2024/04/05 02:38:48;;;;;;;22.45;5.93;;;12.40;99.90;;;;;;4987891;28;20026;-87
2024/04/05 02:41:14;;;;;;;26.50;5.47;;;12.40;99.90;;;;;;4990681;28;20049;-87
2024/04/05 02:43:40;;;;;;;32.03;6.38;;;12.40;99.90;;;;;;4990977;28;20023;-87
2024/04/05 02:46:06;;;;;;;27.65;5.18;;;12.40;99.90;;;;;;4991832;28;20033;-86
2024/04/05 02:48:31;;;;;;;21.55;5.22;;;12.40;99.90;;;;;;4991319;28;20030;-86
2024/04/05 02:50:57;;;;;;;21.38;4.75;;;12.40;99.90;;;;;;4991168;28;20026;-85
2024/04/05 02:53:24;;;;;;;31.58;7.13;;;12.50;99.90;;;;;;4987352;28;20374;-87
2024/04/05 02:55:50;;;;;;;30.35;6.32;;;12.40;99.90;;;;;;4984576;28;20390;-87
2024/04/05 02:58:15;;;;;;;23.25;4.75;;;12.40;99.90;;;;;;4994349;28;20046;-88
2024/04/05 03:00:42;;;;;;;26.20;5.85;;;12.50;99.90;;;;;;4995136;28;20467;-87
2024/04/05 03:03:08;;;;;;;34.88;6.45;;;12.40;99.90;;;;;;4995029;28;20022;-86
2024/04/05 03:05:33;;;;;;;22.00;5.00;;;12.50;99.90;;;;;;4994736;28;20037;-87
2024/04/05 03:07:59;;;;;;;20.80;4.90;;;13.10;99.90;;;;;;4995057;28;20050;-86
2024/04/05 03:10:24;;;;;;;24.05;4.93;;;12.50;99.90;;;;;;4993505;28;20027;-87
2024/04/05 03:12:51;;;;;;;23.27;5.70;;;12.50;99.90;;;;;;4996201;28;20018;-86
2024/04/05 03:15:18;;;;;;;29.30;5.70;;;12.50;99.90;;;;;;4989611;28;20037;-88
2024/04/05 03:17:43;;;;;;;26.15;4.68;;;13.70;99.90;;;;;;4995020;28;20023;-86
2024/04/05 03:20:12;;;;;;;24.30;5.60;;;12.90;99.90;;;;;;4994652;28;20042;-87
2024/04/05 03:22:38;;;;;;;18.45;4.75;;;12.50;99.90;;;;;;4994346;28;20038;-87
2024/04/05 03:25:05;;;;;;;23.25;5.03;;;12.50;99.90;;;;;;4993369;28;20474;-87
2024/04/05 03:27:30;;;;;;;26.60;5.55;;;12.50;99.90;;;;;;4993288;28;20027;-86
2024/04/05 03:29:56;;;;;;;26.25;5.05;;;12.20;99.90;;;;;;4993829;28;20093;-87
2024/04/05 03:32:21;;;;;;;23.55;5.20;;;12.50;99.90;;;;;;5000776;28;20058;-88
2024/04/05 03:34:47;;;;;;;28.60;5.35;;;12.50;99.90;;;;;;4993928;28;20109;-87
2024/04/05 03:37:13;;;;;;;18.70;4.88;;;12.50;99.90;;;;;;4993170;28;20033;-87
2024/04/05 03:39:39;;;;;;;28.02;5.53;;;12.70;99.90;;;;;;4988004;28;20026;-87
2024/04/05 03:42:05;;;;;;;29.40;5.47;;;12.50;99.90;;;;;;4982424;28;20382;-87
2024/04/05 03:44:30;;;;;;;21.92;4.57;;;12.50;99.90;;;;;;4994252;28;20034;-88
2024/04/05 03:46:56;;;;;;;24.20;5.50;;;12.50;99.90;;;;;;4993875;28;20057;-87
2024/04/05 03:49:22;;;;;;;23.77;4.97;;;12.50;99.90;;;;;;4994872;28;20034;-88
2024/04/05 03:51:47;;;;;;;26.17;5.50;;;12.50;99.90;;;;;;4994219;28;20514;-86
2024/04/05 03:54:13;;;;;;;27.02;6.07;;;12.50;99.90;;;;;;4992899;28;20049;-86
2024/04/05 03:56:39;;;;;;;23.83;6.40;;;12.50;99.90;;;;;;4990578;28;20091;-86
2024/04/05 03:59:04;;;;;;;20.85;4.65;;;12.40;99.90;;;;;;4993155;28;20038;-87
2024/04/05 04:01:30;;;;;;;26.98;5.63;;;12.50;99.90;;;;;;4985443;28;20478;-86
2024/04/05 04:03:56;;;;;;;31.05;6.32;;;12.50;99.90;;;;;;4973975;28;20463;-86
2024/04/05 04:06:22;;;;;;;25.05;5.75;;;12.50;99.90;;;;;;4987667;28;20027;-87
2024/04/05 04:08:47;;;;;;;20.85;4.80;;;12.50;99.90;;;;;;4993961;28;20402;-87
2024/04/05 04:11:13;;;;;;;23.25;4.93;;;12.50;99.90;;;;;;4990835;28;20030;-87
2024/04/05 04:13:38;;;;;;;27.02;5.47;;;12.50;99.90;;;;;;4992049;28;20375;-88
2024/04/05 04:16:05;;;;;;;30.75;5.35;;;12.50;99.90;;;;;;4992865;28;20027;-87
2024/04/05 04:18:31;;;;;;;24.33;6.00;;;12.50;99.90;;;;;;4993916;28;20026;-88
2024/04/05 04:20:57;;;;;;;21.38;5.13;;;12.50;99.90;;;;;;4993988;28;20049;-86
2024/04/05 04:23:22;;;;;;;18.15;5.30;;;12.50;99.90;;;;;;4994026;28;20022;-86
2024/04/05 04:25:49;;;;;;;18.88;4.60;;;12.50;99.90;;;;;;4993315;28;20031;-88
2024/04/05 04:28:16;;;;;;;23.40;5.95;;;12.50;99.90;;;;;;4974616;28;20031;-88
2024/04/05 04:30:45;;;;;;;22.98;5.18;;;12.60;99.90;;;;;;4984081;28;20121;-87
2024/04/05 04:33:13;;;;;;;19.08;4.60;;;12.50;99.90;;;;;;4973943;28;20426;-86
2024/04/05 04:35:39;;;;;;;21.55;5.30;;;12.50;99.90;;;;;;4974621;28;20388;-87
2024/04/05 04:38:04;;;;;;;19.13;4.63;;;12.50;99.90;;;;;;4974661;28;20038;-87
2024/04/05 04:40:30;;;;;;;20.48;4.60;;;12.50;99.90;;;;;;4983634;28;20076;-87
2024/04/05 04:42:55;;;;;;;20.45;5.18;;;12.50;99.90;;;;;;4993360;28;20049;-88
2024/04/05 04:45:21;;;;;;;17.75;4.57;;;12.50;99.90;;;;;;4993479;28;20022;-88
2024/04/05 04:47:46;;;;;;;15.13;4.65;;;12.60;99.90;;;;;;4993912;28;20124;-87
2024/04/05 04:50:13;;;;;;;17.70;4.82;;;12.60;99.90;;;;;;4987226;28;20030;-86
2024/04/05 04:52:38;;;;;;;13.23;4.55;;;12.50;99.90;;;;;;4992804;28;20062;-87
2024/04/05 04:55:10;;;;;;;14.77;4.40;;;12.50;99.90;;;;;;4984956;28;20061;-87
2024/04/05 04:57:36;;;;;;;19.65;4.72;;;12.40;99.90;;;;;;4992843;28;20145;-86
2024/04/05 05:00:02;;;;;;;17.88;4.93;;;12.40;99.90;;;;;;4993812;28;20034;-87
2024/04/05 05:02:28;;;;;;;18.67;5.18;;;12.40;99.90;;;;;;4994928;28;20045;-87
2024/04/05 05:04:53;;;;;;;21.00;5.03;;;12.40;99.90;;;;;;4993423;28;20022;-87
2024/04/05 05:07:19;;;;;;;22.98;4.95;;;12.40;99.90;;;;;;4993465;28;20030;-88
2024/04/05 05:09:45;;;;;;;13.77;4.35;;;12.40;99.90;;;;;;4992313;28;20034;-88
2024/04/05 05:12:10;;;;;;;16.58;4.28;;;12.40;99.90;;;;;;4990398;28;20038;-87
2024/04/05 05:14:36;;;;;;;23.08;4.18;;;12.60;99.90;;;;;;4993382;28;20451;-87
2024/04/05 05:17:01;;;;;;;28.30;5.25;;;12.30;99.90;;;;;;4993084;28;20026;-88
2024/04/05 05:19:27;;;;;;;22.40;5.22;;;12.30;99.90;;;;;;4991250;28;20113;-87
2024/04/05 05:21:52;;;;;;;16.63;4.53;;;12.40;99.90;;;;;;4993212;28;20030;-88
2024/04/05 05:24:18;;;;;;;22.52;4.80;;;12.40;99.90;;;;;;4991811;28;20509;-87
2024/04/05 05:26:43;;;;;;;16.77;4.75;;;12.40;99.90;;;;;;4999908;28;20030;-86
2024/04/05 05:29:09;;;;;;;20.40;4.65;;;12.40;99.90;;;;;;4999691;28;20031;-87
2024/04/05 05:31:35;;;;;;;20.20;5.35;;;12.40;99.90;;;;;;4994016;28;20022;-88
2024/04/05 05:34:00;;;;;;;18.13;4.13;;;12.40;99.90;;;;;;4992803;28;20038;-84
2024/04/05 05:36:26;;;;;;;20.20;4.15;;;12.40;99.90;;;;;;4979139;28;20029;-85
2024/04/05 05:38:52;;;;;;;22.88;5.10;;;12.30;99.90;;;;;;4989644;28;20041;-86
2024/04/05 05:41:18;;;;;;;19.45;4.35;;;12.40;99.90;;;;;;4984225;28;20042;-86
2024/04/05 05:43:44;;;;;;;17.40;4.75;;;12.40;99.90;;;;;;4983806;28;20065;-87
2024/04/05 05:46:09;;;;;;;20.30;4.72;;;12.40;99.90;;;;;;4990541;28;20068;-87
2024/04/05 05:48:35;;;;;;;20.20;5.00;;;12.40;99.90;;;;;;4982019;28;20193;-87
2024/04/05 05:51:00;;;;;;;17.27;4.90;;;12.40;99.90;;;;;;4985421;28;20530;-86
2024/04/05 05:53:26;;;;;;;21.42;5.00;;;12.40;99.90;;;;;;4985873;28;20038;-86
2024/04/05 05:55:52;;;;;;;16.73;4.30;;;12.50;99.90;;;;;;4979538;28;20037;-87
2024/04/05 05:58:17;;;;;;;22.90;5.45;;;12.50;99.90;;;;;;4975739;28;20098;-88
2024/04/05 06:00:43;;;;;;;18.48;4.93;;;12.60;99.90;;;;;;4983194;28;20056;-86
2024/04/05 06:03:09;;;;;;;16.98;5.13;;;12.60;99.90;;;;;;4988279;28;20046;-88
2024/04/05 06:05:36;;;;;;;17.92;5.28;;;12.50;99.90;;;;;;4990292;28;20056;-87
2024/04/05 06:08:02;;;;;;;28.30;5.82;;;12.60;99.90;;;;;;4978395;28;20027;-87
2024/04/05 06:10:28;;;;;;;12.45;4.65;;;12.60;99.90;;;;;;4986734;28;20045;-87
2024/04/05 06:12:54;;;;;;;23.30;5.53;;;12.60;99.90;;;;;;4991076;28;20027;-89
2024/04/05 06:15:19;;;;;;;17.52;5.20;;;12.60;99.90;;;;;;4991173;28;20034;-85
2024/04/05 06:17:48;;;;;;;23.95;4.88;;;12.70;99.90;;;;;;4989685;28;20036;-86
2024/04/05 06:20:15;;;;;;;16.90;3.90;;;12.70;99.90;;;;;;4980042;28;20039;-86
2024/04/05 06:22:41;;;;;;;16.52;4.88;;;13.00;99.90;;;;;;4985193;28;20040;-87
2024/04/05 06:25:07;;;;;;;17.20;4.53;;;12.70;99.90;;;;;;4992319;28;20022;-86
2024/04/05 06:27:35;;;;;;;22.02;4.97;;;12.70;99.90;;;;;;4993813;28;20084;-89
2024/04/05 06:30:01;;;;;;;19.95;4.95;;;12.80;99.90;;;;;;4992443;28;20022;-87
2024/04/05 06:32:27;;;;;;;19.40;4.82;;;12.80;99.90;;;;;;4995551;28;20485;-88
2024/04/05 06:34:52;;;;;;;14.38;4.40;;;12.80;99.90;;;;;;4996044;28;20026;-89
2024/04/05 06:37:18;;;;;;;16.33;4.78;;;12.80;99.90;;;;;;4996590;28;20475;-86
2024/04/05 06:39:44;;;;;;;20.70;4.68;;;12.80;99.90;;;;;;4994565;28;20033;-86
2024/04/05 06:42:10;;;;;;;15.15;4.78;;;12.80;99.90;;;;;;4983385;28;20054;-86
2024/04/05 06:44:36;;;;;;;18.75;4.65;;;12.90;99.90;;;;;;4994226;28;20050;-87
2024/04/05 06:47:09;;;;;;;12.63;4.28;;;12.80;99.90;;;;;;4996618;28;20034;-86
2024/04/05 06:49:39;;;;;;;15.18;4.53;;;12.90;99.90;;;;;;4989683;28;20022;-85
2024/04/05 06:52:07;;;;;;;12.93;4.30;;;12.90;99.90;;;;;;4994801;28;20050;-84
2024/04/05 06:54:42;;;;;;;12.10;4.30;;;13.00;99.90;;;;;;4984728;28;20368;-86
2024/04/05 06:57:08;;;;;;;20.70;5.32;;;13.00;99.90;;;;;;4994050;28;20054;-86
2024/04/05 06:59:36;;;;;;;17.38;5.50;;;13.00;99.90;;;;;;4994676;28;20069;-87
2024/04/05 07:02:03;;;;;;;19.77;4.95;;;13.10;99.90;;;;;;4983927;28;20406;-90
2024/04/05 07:04:29;;;;;;;16.90;4.53;;;13.10;99.90;;;;;;4989799;28;20363;-89
2024/04/05 07:06:54;;;;;;;24.38;5.50;;;13.40;99.90;;;;;;4994622;28;20533;-86
2024/04/05 07:09:21;;;;;;;9.60;3.80;;;13.10;99.90;;;;;;4982441;28;20074;-89
2024/04/05 07:11:48;;;;;;;17.17;4.88;;;13.20;99.90;;;;;;4989095;28;20031;-90
2024/04/05 07:14:17;;;;;;;15.20;4.82;;;13.20;99.90;;;;;;5006142;28;20042;-87
2024/04/05 07:16:46;;;;;;;11.30;3.92;;;13.20;99.90;;;;;;5002947;28;20026;-88
2024/04/05 07:19:12;;;;;;;15.40;4.65;;;13.60;99.90;;;;;;4996600;28;20085;-87
2024/04/05 07:21:38;;;;;;;11.32;3.88;;;13.30;99.90;;;;;;4985894;28;20034;-88
2024/04/05 07:24:05;;;;;;;17.73;4.53;;;13.30;99.90;;;;;;4976787;28;20034;-87
2024/04/05 07:26:31;;;;;;;14.32;3.67;;;13.30;99.90;;;;;;4993508;28;20117;-88
2024/04/05 07:28:57;;;;;;;16.70;4.45;;;13.30;99.90;;;;;;4996267;28;20054;-88
2024/04/05 07:31:22;;;;;;;15.65;4.20;;;13.30;99.90;;;;;;4995395;28;20080;-87
2024/04/05 07:33:48;;;;;;;17.50;4.15;;;13.20;99.90;;;;;;4994409;28;20045;-90
2024/04/05 07:36:16;;;;;;;17.33;5.32;;;13.90;99.90;;;;;;4994938;28;20034;-90
2024/04/05 07:38:45;;;;;;;13.38;3.40;;;13.20;99.90;;;;;;4994856;28;20038;-84
2024/04/05 07:41:10;;;;;;;13.65;3.95;;;13.30;99.90;;;;;;4991186;28;20395;-94
2024/04/05 07:43:36;;;;;;;12.98;3.70;;;13.80;99.90;;;;;;4999727;28;20134;-93
2024/04/05 07:46:02;;;;;;;12.80;3.97;;;13.20;99.90;;;;;;4997237;28;20030;-94
2024/04/05 07:48:28;;;;;;;13.27;3.63;;;13.30;99.90;;;;;;4998289;28;20014;-91
2024/04/05 07:50:57;;;;;;;12.30;3.53;;;13.90;99.90;;;;;;4998185;28;20057;-86
2024/04/05 07:53:24;;;;;;;15.90;3.92;;;14.70;99.90;;;;;;4994540;28;20038;-88
2024/04/05 07:55:49;;;;;;;16.13;3.75;;;13.30;99.90;;;;;;4994667;28;20069;-88
2024/04/05 07:58:27;;;;;;;10.50;4.22;;;13.30;99.90;;;;;;4996300;28;20069;-91
2024/04/05 08:00:53;;;;;;;11.93;3.75;;;14.00;99.90;;;;;;4995881;28;20054;-88
2024/04/05 08:03:18;;;;;;;11.07;3.72;;;14.20;99.90;;;;;;4996620;28;20034;-88
2024/04/05 08:05:45;;;;;;;6.93;2.85;;;14.00;99.90;;;;;;4997620;28;20030;-95
2024/04/05 08:08:28;;;;;;;8.93;3.38;;;13.50;99.90;;;;;;4960603;28;20037;-93
2024/04/05 08:11:00;;;;;;;15.10;4.13;;;14.10;99.90;;;;;;4985097;28;20479;-91
2024/04/05 08:13:26;;;;;;;10.63;4.13;;;14.50;99.90;;;;;;4976793;28;20068;-91
2024/04/05 08:15:52;;;;;;;9.32;3.55;;;13.50;99.90;;;;;;4976661;28;20434;-89
2024/04/05 08:18:17;;;;;;;7.80;3.13;;;14.00;99.90;;;;;;4976286;28;20037;-90
2024/04/05 08:20:43;;;;;;;13.23;3.22;;;14.30;99.90;;;;;;4992455;28;20434;-90
2024/04/05 08:23:08;;;;;;;9.30;3.70;;;13.50;99.90;;;;;;4995281;28;20360;-90
2024/04/05 08:25:34;;;;;;;6.47;2.70;;;13.50;99.90;;;;;;4995397;28;20026;-87
2024/04/05 08:28:00;;;;;;;9.80;2.58;;;13.50;99.90;;;;;;4994790;28;20022;-89
2024/04/05 08:30:26;;;;;;;8.77;2.35;;;13.50;99.90;;;;;;4995901;28;20030;-90
2024/04/05 08:32:53;;;;;;;12.35;2.85;;;13.60;99.90;;;;;;4998013;28;20030;-89
2024/04/05 08:35:19;;;;;;;13.63;3.65;;;13.60;99.90;;;;;;5018733;28;20085;-92
2024/04/05 08:37:44;;;;;;;12.85;2.83;;;13.60;99.90;;;;;;5008028;28;20029;-91
2024/04/05 08:40:11;;;;;;;7.90;2.80;;;13.70;99.90;;;;;;4999375;28;20075;-89
2024/04/05 08:42:37;;;;;;;8.45;2.60;;;13.70;99.90;;;;;;5015560;28;20022;-90
2024/04/05 08:45:04;;;;;;;9.57;2.78;;;14.20;99.90;;;;;;5001344;28;20538;-87
2024/04/05 08:47:33;;;;;;;5.13;2.75;;;13.70;99.90;;;;;;4998839;28;20085;-87
2024/04/05 08:49:59;;;;;;;6.72;2.30;;;13.70;99.90;;;;;;4983479;28;20034;-91
2024/04/05 08:52:25;;;;;;;8.75;2.67;;;13.80;99.90;;;;;;4994307;28;20022;-88
2024/04/05 08:54:52;;;;;;;8.02;2.33;;;13.80;99.90;;;;;;4985835;28;20035;-85
2024/04/05 08:57:19;;;;;;;9.65;1.83;;;14.50;99.90;;;;;;4989990;28;20500;-85
2024/04/05 08:59:48;;;;;;;7.18;2.45;;;13.80;99.90;;;;;;4993893;28;20026;-90
2024/04/05 09:02:16;;;;;;;5.70;2.30;;;13.90;99.90;;;;;;4996050;28;20046;-95
2024/04/05 09:04:42;;;;;;;5.80;2.47;;;14.50;99.90;;;;;;4989982;28;20030;-89
2024/04/05 09:07:08;;;;;;;6.55;1.95;;;13.90;99.90;;;;;;5000517;28;20089;-94
2024/04/05 09:09:35;;;;;;;8.30;2.15;;;14.30;99.90;;;;;;5006131;28;20090;-95
2024/04/05 09:12:08;;;;;;;6.03;1.92;;;13.60;99.90;;;;;;5000122;28;20027;-93
2024/04/05 09:14:36;;;;;;;7.05;2.08;;;13.40;99.90;;;;;;4994903;28;20033;-90
2024/04/05 09:17:15;;;;;;;4.72;2.13;;;14.50;99.90;;;;;;4999654;28;20031;-94
2024/04/05 09:19:41;;;;;;;5.57;2.08;;;13.80;99.90;;;;;;4995188;28;20030;-89
2024/04/05 09:22:07;;;;;;;8.68;1.95;;;15.40;99.90;;;;;;4994364;28;20394;-89
2024/04/05 09:24:32;;;;;;;6.35;2.17;;;13.90;99.90;;;;;;4994031;28;20044;-87
2024/04/05 09:27:06;;;;;;;13.07;2.22;;;13.90;99.90;;;;;;4994185;28;20034;-91
2024/04/05 09:29:32;;;;;;;7.90;2.03;;;13.80;99.90;;;;;;4998275;28;20073;-93
2024/04/05 09:31:57;;;;;;;7.45;1.95;;;13.90;99.90;;;;;;4998527;28;20463;-92
2024/04/05 09:34:27;;;;;;;4.97;2.20;;;13.80;99.90;;;;;;5011393;28;20058;-89
2024/04/05 09:36:54;;;;;;;8.45;2.70;;;13.80;99.90;;;;;;4998811;28;20034;-92
2024/04/05 09:39:21;;;;;;;8.38;2.10;;;13.90;99.90;;;;;;4999042;28;20042;-93
2024/04/05 09:41:48;;;;;;;7.68;2.08;;;13.90;99.90;;;;;;5004983;28;20045;-95
2024/04/05 09:44:16;;;;;;;5.65;2.47;;;14.30;99.90;;;;;;5007445;28;20041;-93
2024/04/05 09:46:43;;;;;;;3.88;1.67;;;14.00;99.90;;;;;;4993875;28;20015;-94
2024/04/05 09:49:08;;;;;;;9.15;2.28;;;14.00;99.90;;;;;;4986320;28;20031;-94
2024/04/05 09:51:42;;;;;;;2.78;1.83;;;14.80;99.90;;;;;;5031624;23;20050;-93
2024/04/05 09:54:12;;;;;;;3.67;1.80;;;14.70;99.90;;;;;;4998158;28;20031;-94
2024/04/05 09:59:20;;;;;;;5.00;2.10;;;14.20;99.90;;;;;;5346570;23;20042;-96
2024/04/05 10:01:46;;;;;;;5.20;2.28;;;14.20;99.90;;;;;;5030674;28;20038;-94
2024/04/05 10:09:26;;;;;;;7.90;2.08;;;14.20;99.90;;;;;;5221254;23;20061;-96
2024/04/05 10:14:28;;;;;;;5.40;2.50;;;14.30;99.90;;;;;;5008491;23;20062;-96
2024/04/05 10:17:11;;;;;;;9.38;2.00;;;14.30;99.90;;;;;;5009460;28;20065;-94
2024/04/05 10:19:38;;;;;;;5.10;2.08;;;14.30;99.90;;;;;;4996938;28;20030;-94
2024/04/05 10:22:22;;;;;;;7.05;3.97;;;14.30;99.90;;;;;;4988786;28;20042;-93
2024/04/05 10:24:48;;;;;;;7.13;2.55;;;14.30;99.90;;;;;;4998801;28;20042;-94
2024/04/05 10:27:25;;;;;;;6.28;1.75;;;14.70;99.90;;;;;;5026549;28;20057;-93
2024/04/05 10:30:17;;;;;;;5.63;2.20;;;14.40;99.90;;;;;;5418722;23;20059;-93
2024/04/05 10:33:00;;;;;;;5.88;2.30;;;14.90;99.90;;;;;;5418838;23;20077;-96
2024/04/05 10:35:26;;;;;;;4.45;2.22;;;15.00;99.90;;;;;;5008732;28;20027;-94
2024/04/05 10:38:05;;;;;;;6.07;2.55;;;14.40;99.90;;;;;;4994296;28;20049;-96
2024/04/05 10:40:42;;;;;;;8.18;2.63;;;15.30;99.90;;;;;;5004528;28;20038;-95
2024/04/05 10:43:30;;;;;;;8.05;2.15;;;15.20;99.90;;;;;;5025476;23;20378;-95
2024/04/05 10:46:02;;;;;;;4.95;2.08;;;15.20;99.90;;;;;;5028038;28;20026;-95
2024/04/05 10:58:43;;;;;;;4.60;1.98;;;14.70;99.90;;;;;;4959121;29;20055;-94
2024/04/05 11:01:09;;;;;;;4.45;1.95;;;14.70;99.90;;;;;;4957100;29;20047;-93
2024/04/05 11:03:47;;;;;;;7.15;1.88;;;15.20;99.90;;;;;;4953940;29;20023;-91
2024/04/05 11:06:12;;;;;;;4.72;2.30;;;16.10;99.90;;;;;;4953218;29;20059;-89
2024/04/05 11:08:38;;;;;;;6.35;1.95;;;15.30;99.90;;;;;;4936518;28;20024;-88
2024/04/05 11:11:11;;;;;;;3.92;1.90;;;14.70;99.90;;;;;;4943087;29;20075;-89
2024/04/05 11:13:36;;;;;;;8.25;2.05;;;14.60;99.90;;;;;;4953966;29;20051;-89
2024/04/05 11:16:02;;;;;;;5.93;1.98;;;14.60;99.90;;;;;;4953897;29;20050;-90
2024/04/05 11:18:36;;;;;;;7.40;2.55;;;14.60;99.90;;;;;;4957291;28;20034;-90
2024/04/05 11:21:03;;;;;;;3.25;1.98;;;14.70;99.90;;;;;;4957671;29;20093;-90
2024/04/05 11:23:28;;;;;;;3.45;1.92;;;14.60;99.90;;;;;;4956895;29;20062;-87
2024/04/05 11:25:55;;;;;;;7.03;2.45;;;14.50;99.90;;;;;;4947715;29;20069;-90
2024/04/05 11:28:23;;;;;;;2.92;1.65;;;14.50;99.90;;;;;;4956569;29;20035;-90
2024/04/05 11:30:52;;;;;;;5.30;2.10;;;14.50;99.90;;;;;;4957033;29;20507;-91
2024/04/05 11:33:18;;;;;;;4.28;2.15;;;14.50;99.90;;;;;;4958302;29;20031;-90
2024/04/05 11:35:44;;;;;;;5.05;2.45;;;14.50;99.90;;;;;;4957265;29;20019;-89
2024/04/05 11:38:11;;;;;;;7.88;2.60;;;14.50;99.90;;;;;;4957146;29;20054;-90
2024/04/05 11:40:38;;;;;;;3.85;2.22;;;14.50;99.90;;;;;;4956332;29;20118;-89
2024/04/05 11:43:08;;;;;;;6.50;2.95;;;14.50;99.90;;;;;;4957175;29;20396;-89
2024/04/05 11:45:33;;;;;;;5.35;2.25;;;14.60;99.90;;;;;;4956279;29;20035;-90
2024/04/05 11:47:59;;;;;;;6.63;2.58;;;14.50;99.90;;;;;;4952801;29;20098;-89
2024/04/05 11:50:24;;;;;;;5.07;2.22;;;14.50;99.90;;;;;;4953984;29;20106;-89
2024/04/05 11:52:50;;;;;;;5.93;2.83;;;14.50;99.90;;;;;;4956719;29;20539;-90
2024/04/05 11:55:16;;;;;;;7.22;2.63;;;14.40;99.90;;;;;;4963849;28;20037;-89
2024/04/05 11:57:42;;;;;;;10.18;3.35;;;14.40;99.90;;;;;;4969666;28;20067;-89
2024/04/05 12:00:12;;;;;;;6.25;2.45;;;14.40;99.90;;;;;;4959500;29;20034;-90
2024/04/05 12:02:39;;;;;;;6.50;2.42;;;14.30;99.90;;;;;;4957456;29;20035;-89
2024/04/05 12:05:05;;;;;;;5.40;3.30;;;14.20;99.90;;;;;;4957182;29;20031;-90
2024/04/05 12:07:30;;;;;;;5.32;2.38;;;14.10;99.90;;;;;;4957302;29;20118;-90
2024/04/05 12:09:56;;;;;;;6.05;2.50;;;14.00;99.90;;;;;;4956380;29;20117;-89
2024/04/05 12:12:21;;;;;;;6.25;2.17;;;13.90;99.90;;;;;;4964134;29;20033;-89
2024/04/05 12:14:47;;;;;;;5.38;2.40;;;13.80;99.90;;;;;;4956978;29;20488;-90
2024/04/05 12:17:13;;;;;;;6.03;2.75;;;13.80;99.90;;;;;;4956022;29;20115;-90
2024/04/05 12:19:39;;;;;;;10.35;2.58;;;13.80;99.90;;;;;;4961690;29;20031;-88
2024/04/05 12:22:08;;;;;;;6.40;2.50;;;14.50;99.90;;;;;;4967880;29;20118;-90
2024/04/05 12:24:35;;;;;;;12.43;2.80;;;13.80;99.90;;;;;;4959361;29;20027;-89
2024/04/05 12:27:02;;;;;;;6.95;2.92;;;13.90;99.90;;;;;;4943810;29;20122;-91
2024/04/05 12:29:28;;;;;;;9.50;3.15;;;13.90;99.90;;;;;;4943216;29;20029;-88
2024/04/05 12:31:54;;;;;;;11.55;2.88;;;14.00;99.90;;;;;;4942115;29;20032;-89
2024/04/05 12:34:27;;;;;;;8.45;2.90;;;14.10;99.90;;;;;;4948199;29;20035;-89
2024/04/05 12:36:53;;;;;;;7.78;2.63;;;14.20;99.90;;;;;;4948710;29;20019;-88
2024/04/05 12:39:25;;;;;;;7.05;2.72;;;15.00;99.90;;;;;;4955400;29;20104;-88
2024/04/05 12:41:52;;;;;;;10.30;2.72;;;14.40;99.90;;;;;;4950717;29;20058;-88
2024/04/05 12:44:22;;;;;;;5.05;2.10;;;15.20;99.90;;;;;;4943914;29;20494;-89
2024/04/05 12:46:51;;;;;;;4.78;1.95;;;16.00;99.90;;;;;;4950865;29;20031;-89
2024/04/05 12:49:18;;;;;;;10.48;3.33;;;15.20;99.90;;;;;;4950259;29;20194;-89
2024/04/05 12:51:44;;;;;;;10.25;3.20;;;15.10;99.90;;;;;;4944118;29;20115;-92
2024/04/05 12:54:09;;;;;;;10.80;2.58;;;14.90;99.90;;;;;;4952793;29;20059;-90
2024/04/05 12:56:35;;;;;;;12.75;3.08;;;15.80;99.90;;;;;;4944950;29;20054;-88
2024/04/05 12:59:00;;;;;;;13.52;3.00;;;15.10;99.90;;;;;;4940098;29;20047;-88